Local Weather Ingen bokad jour idag Thursday 23rd of March
Flygplats METAR TAF
Airport METAR TAF
ESSL - Linköping222350Z AUTO 25006KT 9999 NCD 03/00 Q1017= NO VALID TAF PUBLISHED
ESSP - Norrköping222350Z AUTO 26011KT 9999 NCD 03/M00 Q1016= NO VALID TAF PUBLISHED
ESGJ - Jönköping222350Z 25009KT CAVOK 01/00 Q1017 RWY 19 WET OR WATER PATCHES 51-100 PCT FCT 0.70= 222330Z 2300/2303 25007KT CAVOK PROB40 2302/2303 1200 BCFG=
ESKN - Skavsta222350Z 26011KT CAVOK 02/M01 Q1015 RWY 26 CLEAR AND DRY 51-100 PCT BA GOOD= 222330Z 2300/2324 26008KT CAVOK=
ESSV - Visby222350Z AUTO 24014KT 9999 NCD 03/00 Q1018= NO VALID TAF PUBLISHED
ESGG - Göteborg222350Z 23006KT 9999 FEW009 00/M00 Q1019 RWY 21 DAMP 51-100 PCT BA GOOD= 222330Z 2300/2324 23005KT CAVOK PROB40 2300/2302 2000 BCFG PROB40 2302/2308 0300 FZFG VV002=